McTaggart, Shawn
United StatesWomanBorn 19772006 – 2026Runner id 63596
Events
80
79 race dates
Best pace
11.594
km/h · 2011
Best finish
4th
of 41 · 2013
Distance raced
6,599
km · splits not double-counted
Pace over time
79 of 80 results · km/h
Pace over time: 79 races from 2006 to 2026, ranging from 2.15 to 11.60 kilometres per hour, where higher is faster. A second, age-graded series is drawn above it; the gap between the two is the age credit.
- Actual pace
- Age-graded pace
1 result is not on this chart. They are counted in every statistic above and listed in full below — backyard ultras carry a lap count instead of a pace, which is the number that means something in that format.
Results
| Date | Event | Distance | Result | Pace km/h | Placing |
|---|---|---|---|---|---|
| 2006-02-11 | Orcas Island 50kUnited States | 50km | 7:25:00 h | 6.742 | 15/23 |
| 2006-03-18 | Chuckanut 50KUnited States | 50km | 6:09:24 h | 8.121 | 130/242 |
| 2006-06-03 | 50mi | 10:40:09 h | 7.542 | 11/13 | |
| 2006-10-07 | Baker Lake 50K Ultra Trail RunUnited States | 50km | 5:47:33 h | 8.632 | 39/113 |
| 2007-01-13 | Bridle Trails Winter Running FestivalUnited States | 50km | 5:27:42 h | 9.155 | 29/44 |
| 2007-02-03 | Pigtails Run 50KUnited States | 50km | 5:28:40 h | 9.128 | 34/44 |
| 2007-03-17 | Chuckanut 50KUnited States | 50km | 5:53:54 h | 8.477 | 106/260 |
| 2007-04-28 | Capitol Peak 55KUnited States | 55km | 7:14:04 h | 7.603 | 15/30 |
| 2007-06-09 | Lake Youngs UltraUnited States | 28.8mi | 4:48:00 h | 9.656 | 24/62 |
| 2007-12-22 | 50km | 4:41:17 h | 10.665 | 12/42 | |
| 2008-01-12 | Bridle Trails Winter Running FestivalUnited States | 50km | 5:32:32 h | 9.022 | 18/44 |
| 2008-01-26 | Pigtails Run 50KUnited States | 50km | 6:00:00 h | 8.333 | 42/49 |
| 2008-03-15 | Chuckanut 50KUnited States | 50km | 5:52:20 h | 8.515 | 112/294 |
| 2008-04-26 | 50mi | 9:59:50 h | 8.049 | 16/37 | |
| 2008-06-14 | Lake Youngs UltraUnited States | 28.8mi | 5:28:32 h | 8.465 | 71/95 |
| 2008-11-15 | 50mi | 8:11:39 h | 9.820 | 11/32 | |
| 2008-11-29 | Ghost of Seattle MarathonUnited States | 50km | 4:55:34 h | 10.150 | 4/8 |
| 2009-01-10 | Bridle Trails Winter Running FestivalUnited States | 50km | 4:57:55 h | 10.070 | 13/50 |
| 2009-01-24 | Pigtails Run 50KUnited States | 50km | 5:25:00 h | 9.231 | 27/49 |
| 2009-02-07 | Orcas Island 50kUnited States | 50km | 7:39:12 h | 6.533 | 81/106 |
| 2009-03-21 | Chuckanut 50KUnited States | 50km | 5:29:49 h | 9.096 | 76/270 |
| 2009-03-28 | 50km | 6:02:00 h | 8.287 | 17/19 | |
| 2009-04-10 | 150mi | 2d 03:16:30 h | 4.708 | 11/12 | |
| 2009-04-25 | 50mi | 10:48:07 h | 7.449 | 30/43 | |
| 2009-05-16 | Watershed Preserve 12 Hr Trail RaceUnited States | 12h | 86.502 km | 7.209 | 23/66 |
| 2009-07-25 | 50mi | 9:35:48 h | 8.385 | 52/166 | |
| 2009-09-12 | 100mi | 33:51:06 h | 4.754 | 6/10 | |
| 2009-09-26 | 100mi | 28:51:21 h | 5.577 | 78/87 | |
| 2009-10-31 | 12h | 77.650 km | 6.471 | 5/33 | |
| 2010-01-09 | Bridle Trails Winter Running FestivalUnited States | 50km | 4:43:24 h | 10.586 | 15/70 |
| 2010-01-16 | 34mi | 5:27:00 h | 10.040 | 16/38 | |
| 2010-01-23 | Pigtails Run 50KUnited States | 50km | 6:14:09 h | 8.018 | 67/80 |
| 2010-02-10 | Woolley Trail Runs 50kUnited States | 50km | 5:16:47 h | 9.470 | 12/18 |
| 2010-03-07 | Lord Hill Trail RunUnited States | 50km | 6:33:53 h | 7.616 | 7/21 |
| 2010-03-20 | 50km | 4:52:08 h | 10.269 | 50/287 | |
| 2010-04-09 | 50mi | 9:35:00 h | 8.397 | 3/26 | |
| 2010-04-11 | 50mi | 9:50:35 h | 8.175 | 37/46 | |
| 2010-04-18 | 100km | 11:28:50 h | 8.710 | 5/8 | |
| 2010-04-25 | 50mi | 10:19:35 h | 7.792 | 56/88 | |
| 2010-07-10 | Let's Climb a MountainUnited States | 34.3mi | 6:53:13 h | 8.015 | 13/18 |
| 2010-07-31 | 50mi | 12:18:19 h | 6.539 | 166/194 | |
| 2011-01-08 | Bridle Trails Winter Running FestivalUnited States | 50km | 4:33:03 h | 10.987 | 8/46 |
| 2011-01-15 | 34mi | 6:08:00 h | 8.921 | 10/43 | |
| 2011-01-29 | Cedar River Yours TrulyUnited States | 50km | 5:17:00 h | 9.464 | 8/16 |
| 2011-02-19 | 50km | 4:18:45 h | 11.594 | 4/25 | |
| 2011-03-19 | 24h | 56.327 km | 2.347 | 52/67 | |
| 2011-04-10 | 50mi | 9:22:10 h | 8.588 | 24/43 | |
| 2011-04-16 | 100km | 13:04:00 h | 7.653 | 3/14 | |
| 2011-04-23 | Squak Mountain 50 Km Trail RunUnited States | 50km | 7:29:09 h | 6.679 | 7/15 |
| 2011-09-17 | 40mi | 7:18:43 h | 8.804 | 12/31 |
Showing 1–50 of 80